createdAt,value
2017-12-27T00:00:22.215Z,9.80
2017-12-27T00:01:22.230Z,5.60
2017-12-27T00:02:22.237Z,3.20
2017-12-27T00:03:22.229Z,4.90
2017-12-27T00:04:22.241Z,6.60
2017-12-27T00:05:22.250Z,6.00
2017-12-27T00:06:22.246Z,5.90
2017-12-27T00:07:22.268Z,6.20
2017-12-27T00:08:22.260Z,4.40
2017-12-27T00:09:22.265Z,7.00
2017-12-27T00:10:22.276Z,5.60
2017-12-27T00:11:22.287Z,5.30
2017-12-27T00:12:22.279Z,6.10
2017-12-27T00:13:22.301Z,3.80
2017-12-27T00:14:22.299Z,5.00
2017-12-27T00:15:22.305Z,10.20
2017-12-27T00:16:22.305Z,7.70
2017-12-27T00:17:22.313Z,8.80
2017-12-27T00:18:22.329Z,7.00
2017-12-27T00:19:22.333Z,7.40
2017-12-27T00:20:22.345Z,5.40
2017-12-27T00:21:22.340Z,8.00
2017-12-27T00:22:22.347Z,7.50
2017-12-27T00:23:22.348Z,5.80
2017-12-27T00:24:22.351Z,5.80
2017-12-27T00:25:22.372Z,5.80
2017-12-27T00:26:22.374Z,6.40
2017-12-27T00:27:22.381Z,8.10
2017-12-27T00:28:22.383Z,5.40
2017-12-27T00:29:22.386Z,7.40
2017-12-27T00:30:22.392Z,6.50
2017-12-27T00:31:22.406Z,8.10
2017-12-27T00:32:22.404Z,6.00
2017-12-27T00:33:22.416Z,5.50
2017-12-27T00:34:22.408Z,8.60
2017-12-27T00:35:22.424Z,5.40
2017-12-27T00:36:22.432Z,5.80
2017-12-27T00:37:22.435Z,6.20
2017-12-27T00:38:22.437Z,5.90
2017-12-27T00:39:22.446Z,5.90
2017-12-27T00:40:22.451Z,6.40
2017-12-27T00:41:22.460Z,6.50
2017-12-27T00:42:22.463Z,8.10
2017-12-27T00:43:22.471Z,8.80
2017-12-27T00:44:22.480Z,8.00
2017-12-27T00:45:22.481Z,6.60
2017-12-27T00:46:22.490Z,5.80
2017-12-27T00:47:22.497Z,5.60
2017-12-27T00:48:22.494Z,4.60
2017-12-27T00:49:22.507Z,5.40
2017-12-27T00:50:22.515Z,3.20
2017-12-27T00:51:22.519Z,4.40
2017-12-27T00:52:22.524Z,6.80
2017-12-27T00:53:22.532Z,6.30
2017-12-27T00:54:22.535Z,5.50
2017-12-27T00:55:22.544Z,6.40
2017-12-27T00:56:22.554Z,6.60
2017-12-27T00:57:22.554Z,9.00
2017-12-27T00:58:22.564Z,8.70
2017-12-27T00:59:22.567Z,5.40
2017-12-27T01:00:22.564Z,7.80
2017-12-27T01:01:22.591Z,7.90
2017-12-27T01:02:22.574Z,6.50
2017-12-27T01:03:22.592Z,5.00
2017-12-27T01:04:22.601Z,5.30
2017-12-27T01:05:22.604Z,7.10
2017-12-27T01:06:22.613Z,7.90
2017-12-27T01:07:22.606Z,5.50
2017-12-27T01:08:22.622Z,7.80
2017-12-27T01:09:22.624Z,3.40
2017-12-27T01:10:22.642Z,5.20
2017-12-27T01:11:23.569Z,5.90
2017-12-27T01:12:22.650Z,7.00
2017-12-27T01:13:22.653Z,4.30
2017-12-27T01:14:22.663Z,5.80
2017-12-27T01:15:22.669Z,6.70
2017-12-27T01:16:22.669Z,3.80
2017-12-27T01:17:22.675Z,5.30
2017-12-27T01:18:22.685Z,7.40
2017-12-27T01:19:22.683Z,4.90
2017-12-27T01:20:22.692Z,5.10
2017-12-27T01:21:22.700Z,8.70
2017-12-27T01:22:22.708Z,8.00
2017-12-27T01:23:22.728Z,6.40
2017-12-27T01:24:22.728Z,5.30
2017-12-27T01:25:22.719Z,9.50
2017-12-27T01:26:22.732Z,6.80
2017-12-27T01:27:22.739Z,6.30
2017-12-27T01:28:22.743Z,6.80
2017-12-27T01:29:22.753Z,7.30
2017-12-27T01:30:22.755Z,6.40
2017-12-27T01:31:22.764Z,7.10
2017-12-27T01:32:22.767Z,6.50
2017-12-27T01:33:22.786Z,5.60
2017-12-27T01:34:22.848Z,4.80
2017-12-27T01:35:22.790Z,8.50
2017-12-27T01:36:22.794Z,6.40
2017-12-27T01:37:22.801Z,6.10
2017-12-27T01:38:22.798Z,6.80
2017-12-27T01:39:22.817Z,7.00
2017-12-27T01:40:22.823Z,5.70
2017-12-27T01:41:22.837Z,4.00
2017-12-27T01:42:22.833Z,7.60
2017-12-27T01:43:22.840Z,7.00
2017-12-27T01:44:22.846Z,5.40
2017-12-27T01:45:22.851Z,9.60
2017-12-27T01:46:22.858Z,6.60
2017-12-27T01:47:22.866Z,6.50
2017-12-27T01:48:22.875Z,12.20
2017-12-27T01:49:22.869Z,5.40
2017-12-27T01:50:22.897Z,5.40
2017-12-27T01:51:22.880Z,6.10
2017-12-27T01:52:22.909Z,5.00
2017-12-27T01:53:22.910Z,7.10
2017-12-27T01:54:22.913Z,5.80
2017-12-27T01:55:22.915Z,2.80
2017-12-27T01:56:22.930Z,4.40
2017-12-27T01:57:22.928Z,3.70
2017-12-27T01:58:22.933Z,4.10
2017-12-27T01:59:22.943Z,11.60
2017-12-27T02:00:22.945Z,4.90
2017-12-27T02:01:22.953Z,10.10
2017-12-27T02:02:23.026Z,6.00
2017-12-27T02:03:22.964Z,7.60
2017-12-27T02:04:22.980Z,3.30
2017-12-27T02:05:22.981Z,4.30
2017-12-27T02:06:22.986Z,7.10
2017-12-27T02:07:22.999Z,8.40
2017-12-27T02:08:22.998Z,4.90
2017-12-27T02:09:23.005Z,5.70
2017-12-27T02:10:23.014Z,7.00
2017-12-27T02:11:23.013Z,11.50
2017-12-27T02:12:23.014Z,6.50
2017-12-27T02:13:23.023Z,4.60
2017-12-27T02:14:23.034Z,5.30
2017-12-27T02:15:23.041Z,4.10
2017-12-27T02:16:23.036Z,8.40
2017-12-27T02:17:23.055Z,4.20
2017-12-27T02:18:23.059Z,4.60
2017-12-27T02:19:23.065Z,3.90
2017-12-27T02:20:23.071Z,5.10
2017-12-27T02:21:23.075Z,4.50
2017-12-27T02:22:23.080Z,8.80
2017-12-27T02:23:23.093Z,2.90
2017-12-27T02:24:23.092Z,4.60
2017-12-27T02:25:23.160Z,3.70
2017-12-27T02:26:23.102Z,9.00
2017-12-27T02:27:23.107Z,2.70
2017-12-27T02:28:23.116Z,5.40
2017-12-27T02:29:23.112Z,7.30
2017-12-27T02:30:23.130Z,6.30
2017-12-27T02:31:23.137Z,7.00
2017-12-27T02:32:23.159Z,3.80
2017-12-27T02:33:23.150Z,9.10
2017-12-27T02:34:23.149Z,8.30
2017-12-27T02:35:23.164Z,3.90
2017-12-27T02:36:23.174Z,4.50
2017-12-27T02:37:23.161Z,7.30
2017-12-27T02:38:23.171Z,5.80
2017-12-27T02:39:23.186Z,5.60
2017-12-27T02:40:23.177Z,6.90
2017-12-27T02:41:23.193Z,5.20
2017-12-27T02:42:23.201Z,3.80
2017-12-27T02:44:23.216Z,5.20
2017-12-27T02:45:23.207Z,5.70
2017-12-27T02:46:23.224Z,4.60
2017-12-27T02:47:23.241Z,9.30
2017-12-27T02:48:23.233Z,4.60
2017-12-27T02:49:23.240Z,5.40
2017-12-27T02:50:23.246Z,6.50
2017-12-27T02:51:23.251Z,10.10
2017-12-27T02:52:23.261Z,4.40
2017-12-27T02:53:23.338Z,5.60
2017-12-27T02:54:23.297Z,4.70
2017-12-27T02:55:23.286Z,7.30
2017-12-27T02:56:23.282Z,7.00
2017-12-27T02:57:23.287Z,6.40
2017-12-27T02:58:23.299Z,4.40
2017-12-27T02:59:23.303Z,7.40
2017-12-27T03:00:23.309Z,5.00
2017-12-27T03:01:23.311Z,4.50
2017-12-27T03:02:23.321Z,5.40
2017-12-27T03:03:23.321Z,6.20
2017-12-27T03:04:23.329Z,5.10
2017-12-27T03:05:23.339Z,4.80
2017-12-27T03:06:23.346Z,4.40
2017-12-27T03:07:23.351Z,5.20
2017-12-27T03:08:23.353Z,4.80
2017-12-27T03:09:23.359Z,6.00
2017-12-27T03:10:23.367Z,3.20
2017-12-27T03:11:23.378Z,6.50
2017-12-27T03:12:23.381Z,7.90
2017-12-27T03:13:23.388Z,6.30
2017-12-27T03:14:23.388Z,5.50
2017-12-27T03:15:23.401Z,6.60
2017-12-27T03:16:23.402Z,4.70
2017-12-27T03:17:23.415Z,4.60
2017-12-27T03:18:23.463Z,8.60
2017-12-27T03:19:23.426Z,2.60
2017-12-27T03:20:23.425Z,6.80
2017-12-27T03:21:23.527Z,7.60
2017-12-27T03:22:23.439Z,4.90
2017-12-27T03:23:23.454Z,9.40
2017-12-27T03:24:23.458Z,6.30
2017-12-27T03:25:23.458Z,4.70
2017-12-27T03:26:23.473Z,5.20
2017-12-27T03:27:23.476Z,6.20
2017-12-27T03:28:23.482Z,5.90
2017-12-27T03:29:23.487Z,4.80
2017-12-27T03:30:23.492Z,5.80
2017-12-27T03:31:23.502Z,5.00
2017-12-27T03:32:23.509Z,4.80
2017-12-27T03:33:23.514Z,3.80
2017-12-27T03:34:23.522Z,4.30
2017-12-27T03:35:23.537Z,3.60
2017-12-27T03:36:23.533Z,5.80
2017-12-27T03:37:23.542Z,5.00
2017-12-27T03:38:23.544Z,5.00
2017-12-27T03:39:23.568Z,6.90
2017-12-27T03:40:23.557Z,4.10
2017-12-27T03:41:23.569Z,3.90
2017-12-27T03:42:23.572Z,2.70
2017-12-27T03:43:23.568Z,8.00
2017-12-27T03:44:23.576Z,4.30
2017-12-27T03:45:23.590Z,3.00
2017-12-27T03:46:23.599Z,7.20
2017-12-27T03:47:23.609Z,5.50
2017-12-27T03:48:23.609Z,3.80
2017-12-27T03:49:23.619Z,4.30
2017-12-27T03:50:23.618Z,3.20
2017-12-27T03:51:23.625Z,5.30
2017-12-27T03:52:23.638Z,3.30
2017-12-27T03:53:23.645Z,3.50
2017-12-27T03:54:23.654Z,3.10
2017-12-27T03:55:23.657Z,5.20
2017-12-27T03:56:23.662Z,4.10
2017-12-27T03:57:23.766Z,2.60
2017-12-27T03:58:23.664Z,4.50
2017-12-27T03:59:23.683Z,4.70
2017-12-27T04:00:23.689Z,3.80
2017-12-27T04:01:23.696Z,3.60
2017-12-27T04:02:23.698Z,4.40
2017-12-27T04:03:23.712Z,4.20
2017-12-27T04:04:23.713Z,4.00
2017-12-27T04:05:23.726Z,6.50
2017-12-27T04:06:23.725Z,2.80
2017-12-27T04:07:23.739Z,3.90
2017-12-27T04:08:23.740Z,3.00
2017-12-27T04:09:23.744Z,4.80
2017-12-27T04:10:23.744Z,7.30
2017-12-27T04:11:23.759Z,4.50
2017-12-27T04:12:23.770Z,4.80
2017-12-27T04:13:23.776Z,5.30
2017-12-27T04:14:23.789Z,5.80
2017-12-27T04:15:23.806Z,4.30
2017-12-27T04:16:23.799Z,3.20
2017-12-27T04:17:23.805Z,4.30
2017-12-27T04:18:23.811Z,5.90
2017-12-27T04:19:23.808Z,6.20
2017-12-27T04:20:23.818Z,3.70
2017-12-27T04:21:23.828Z,4.90
2017-12-27T04:22:23.830Z,6.20
2017-12-27T04:23:23.844Z,2.60
2017-12-27T04:24:23.842Z,2.40
2017-12-27T04:25:23.837Z,5.40
2017-12-27T04:26:23.850Z,5.10
2017-12-27T04:27:23.862Z,3.90
2017-12-27T04:28:23.866Z,3.50
2017-12-27T04:29:23.878Z,2.90
2017-12-27T04:30:23.879Z,5.10
2017-12-27T04:31:23.892Z,3.40
2017-12-27T04:32:23.892Z,4.70
2017-12-27T04:33:23.901Z,5.30
2017-12-27T04:34:23.909Z,3.30
2017-12-27T04:35:23.924Z,3.50
2017-12-27T04:36:23.920Z,5.70
2017-12-27T04:37:23.929Z,3.70
2017-12-27T04:38:23.995Z,3.50
2017-12-27T04:39:23.948Z,3.80
2017-12-27T04:40:23.953Z,7.10
2017-12-27T04:41:23.951Z,3.20
2017-12-27T04:42:23.951Z,2.60
2017-12-27T04:43:23.972Z,1.90
2017-12-27T04:44:23.965Z,3.10
2017-12-27T04:45:23.988Z,2.90
2017-12-27T04:46:23.988Z,3.50
2017-12-27T04:47:23.991Z,2.10
2017-12-27T04:48:23.996Z,2.80
2017-12-27T04:49:24.007Z,4.00
2017-12-27T04:50:24.013Z,2.50
2017-12-27T04:51:24.022Z,2.80
2017-12-27T04:52:24.020Z,1.50
2017-12-27T04:53:24.033Z,2.80
2017-12-27T04:54:24.039Z,3.00
2017-12-27T04:55:24.053Z,5.00
2017-12-27T04:56:24.052Z,2.10
2017-12-27T04:57:24.056Z,2.70
2017-12-27T04:58:24.066Z,2.80
2017-12-27T04:59:24.074Z,3.40
2017-12-27T05:00:24.085Z,3.10
2017-12-27T05:01:24.084Z,3.20
2017-12-27T05:02:24.089Z,2.00
2017-12-27T05:03:24.095Z,3.20
2017-12-27T05:04:24.105Z,4.30
2017-12-27T05:05:24.109Z,3.60
2017-12-27T05:06:24.104Z,3.20
2017-12-27T05:07:24.122Z,2.60
2017-12-27T05:08:24.128Z,2.70
2017-12-27T05:09:24.130Z,3.00
2017-12-27T05:10:24.140Z,5.10
2017-12-27T05:11:24.148Z,3.00
2017-12-27T05:12:24.155Z,5.90
2017-12-27T05:13:24.147Z,4.70
2017-12-27T05:14:24.168Z,3.60
2017-12-27T05:15:24.173Z,3.70
2017-12-27T05:16:24.248Z,3.20
2017-12-27T05:17:24.184Z,3.70
2017-12-27T05:18:24.190Z,4.10
2017-12-27T05:19:24.204Z,4.60
2017-12-27T05:20:24.197Z,4.30
2017-12-27T05:21:24.216Z,2.10
2017-12-27T05:22:24.221Z,6.00
2017-12-27T05:23:24.223Z,2.60
2017-12-27T05:24:24.229Z,3.90
2017-12-27T05:25:24.243Z,4.80
2017-12-27T05:26:24.247Z,3.40
2017-12-27T05:27:24.243Z,6.10
2017-12-27T05:28:24.256Z,4.40
2017-12-27T05:29:24.350Z,3.50
2017-12-27T05:30:24.265Z,3.00
2017-12-27T05:31:24.275Z,2.50
2017-12-27T05:32:24.280Z,3.60
2017-12-27T05:33:24.291Z,2.80
2017-12-27T05:34:24.296Z,2.80
2017-12-27T05:35:24.296Z,2.70
2017-12-27T05:36:24.310Z,4.10
2017-12-27T05:37:24.311Z,2.30
2017-12-27T05:38:24.328Z,4.60
2017-12-27T05:39:24.330Z,2.90
2017-12-27T05:40:24.325Z,2.30
2017-12-27T05:41:24.345Z,2.10
2017-12-27T05:42:24.348Z,3.10
2017-12-27T05:43:24.356Z,3.60
2017-12-27T05:44:24.359Z,5.30
2017-12-27T05:45:24.367Z,2.90
2017-12-27T05:46:24.375Z,3.30
2017-12-27T05:47:24.380Z,1.40
2017-12-27T05:48:24.389Z,2.20
2017-12-27T05:49:24.385Z,3.90
2017-12-27T05:50:24.405Z,4.10
2017-12-27T05:51:24.412Z,2.80
2017-12-27T05:52:24.411Z,2.10
2017-12-27T05:53:24.424Z,4.10
2017-12-27T05:54:24.434Z,1.90
2017-12-27T05:55:24.434Z,1.80
2017-12-27T05:56:24.442Z,2.60
2017-12-27T05:57:24.457Z,4.40
2017-12-27T05:58:24.451Z,3.00
2017-12-27T05:59:24.459Z,2.70
2017-12-27T06:00:24.473Z,3.50
2017-12-27T06:01:24.471Z,3.70
2017-12-27T06:02:24.482Z,4.10
2017-12-27T06:03:24.487Z,2.80
2017-12-27T06:04:24.495Z,5.80
2017-12-27T06:05:24.497Z,3.30
2017-12-27T06:06:24.505Z,2.70
2017-12-27T06:07:24.506Z,3.00
2017-12-27T06:08:24.514Z,3.10
2017-12-27T06:09:24.525Z,3.50
2017-12-27T06:10:24.530Z,1.60
2017-12-27T06:11:24.544Z,1.30
2017-12-27T06:12:24.545Z,2.30
2017-12-27T06:13:24.555Z,2.80
2017-12-27T06:14:24.561Z,3.70
2017-12-27T06:15:24.566Z,1.90
2017-12-27T06:16:24.570Z,2.00
2017-12-27T06:17:24.575Z,3.80
2017-12-27T06:18:24.582Z,3.00
2017-12-27T06:19:24.589Z,2.90
2017-12-27T06:20:24.603Z,3.60
2017-12-27T06:21:24.602Z,2.60
2017-12-27T06:22:24.616Z,2.30
2017-12-27T06:23:24.624Z,2.10
2017-12-27T06:24:24.627Z,2.50
2017-12-27T06:25:24.632Z,3.50
2017-12-27T06:26:24.638Z,3.00
2017-12-27T06:27:24.651Z,2.30
2017-12-27T06:28:24.649Z,2.40
2017-12-27T06:29:24.660Z,3.10
2017-12-27T06:30:25.599Z,2.40
2017-12-27T06:31:24.676Z,2.40
2017-12-27T06:32:24.675Z,4.10
2017-12-27T06:33:24.686Z,4.00
2017-12-27T06:34:24.693Z,3.00
2017-12-27T06:35:24.697Z,4.10
2017-12-27T06:36:24.711Z,3.70
2017-12-27T06:37:24.717Z,3.00
2017-12-27T06:38:24.731Z,2.80
2017-12-27T06:39:24.729Z,1.80
2017-12-27T06:40:24.732Z,2.50
2017-12-27T06:41:24.734Z,4.50
2017-12-27T06:42:24.748Z,2.60
2017-12-27T06:43:24.756Z,2.10
2017-12-27T06:44:24.764Z,3.50
2017-12-27T06:45:24.758Z,3.10
2017-12-27T06:46:24.780Z,2.30
2017-12-27T06:47:24.783Z,2.80
2017-12-27T06:48:24.791Z,2.20
2017-12-27T06:49:24.795Z,2.80
2017-12-27T06:50:24.805Z,2.90
2017-12-27T06:51:24.815Z,3.20
2017-12-27T06:52:24.817Z,5.30
2017-12-27T06:53:24.825Z,2.50
2017-12-27T06:54:24.840Z,2.40
2017-12-27T06:55:24.837Z,1.60
2017-12-27T06:56:24.843Z,4.00
2017-12-27T06:57:24.852Z,2.40
2017-12-27T06:58:24.894Z,2.10
2017-12-27T06:59:24.870Z,3.80
2017-12-27T07:00:24.874Z,2.40
2017-12-27T07:01:24.891Z,4.60
2017-12-27T07:02:24.880Z,2.10
2017-12-27T07:03:24.896Z,1.90
2017-12-27T07:04:24.898Z,3.50
2017-12-27T07:05:24.928Z,2.70
2017-12-27T07:06:24.912Z,2.60
2017-12-27T07:07:24.917Z,2.70
2017-12-27T07:08:24.924Z,2.00
2017-12-27T07:09:24.926Z,2.80
2017-12-27T07:10:24.939Z,3.60
2017-12-27T07:11:24.966Z,2.40
2017-12-27T07:12:24.953Z,2.10
2017-12-27T07:13:24.966Z,3.30
2017-12-27T07:14:24.971Z,3.30
2017-12-27T07:15:24.976Z,1.50
2017-12-27T07:16:24.984Z,3.20
2017-12-27T07:17:24.990Z,4.70
2017-12-27T07:18:24.996Z,2.60
2017-12-27T07:19:25.006Z,3.60
2017-12-27T07:20:25.003Z,2.60
2017-12-27T07:21:25.029Z,2.30
2017-12-27T07:22:25.025Z,1.80
2017-12-27T07:23:25.035Z,2.20
2017-12-27T07:24:25.028Z,2.90
2017-12-27T07:25:25.050Z,2.60
2017-12-27T07:26:25.045Z,2.50
2017-12-27T07:27:25.058Z,1.80
2017-12-27T07:28:25.069Z,1.70
2017-12-27T07:29:25.069Z,1.60
2017-12-27T07:30:25.090Z,1.90
2017-12-27T07:31:25.092Z,3.50
2017-12-27T07:32:25.095Z,3.80
2017-12-27T07:33:25.110Z,1.10
2017-12-27T07:34:25.111Z,2.30
2017-12-27T07:35:25.115Z,2.80
2017-12-27T07:36:25.128Z,3.70
2017-12-27T07:37:25.128Z,3.90
2017-12-27T07:38:25.131Z,1.80
2017-12-27T07:39:25.189Z,2.60
2017-12-27T07:40:25.155Z,1.70
2017-12-27T07:41:25.158Z,2.30
2017-12-27T07:42:25.162Z,2.30
2017-12-27T07:43:25.170Z,1.30
2017-12-27T07:44:25.176Z,5.30
2017-12-27T07:45:25.185Z,1.70
2017-12-27T07:46:25.195Z,2.00
2017-12-27T07:47:25.192Z,2.40
2017-12-27T07:48:25.208Z,1.70
2017-12-27T07:49:25.205Z,1.90
2017-12-27T07:50:25.217Z,3.20
2017-12-27T07:51:25.228Z,2.90
2017-12-27T07:52:25.229Z,5.50
2017-12-27T07:53:25.242Z,3.60
2017-12-27T07:54:25.266Z,3.40
2017-12-27T07:55:25.253Z,3.00
2017-12-27T07:56:25.257Z,2.40
2017-12-27T07:57:25.265Z,2.50
2017-12-27T07:58:25.273Z,2.50
2017-12-27T07:59:25.270Z,1.80
2017-12-27T08:00:25.296Z,2.50
2017-12-27T08:01:25.292Z,2.90
2017-12-27T08:02:25.300Z,2.50
2017-12-27T08:03:25.307Z,3.70
2017-12-27T08:04:25.312Z,1.60
2017-12-27T08:05:25.320Z,1.90
2017-12-27T08:06:25.329Z,3.20
2017-12-27T08:07:25.335Z,2.90
2017-12-27T08:08:25.339Z,3.00
2017-12-27T08:09:25.353Z,2.30
2017-12-27T08:10:25.354Z,2.50
2017-12-27T08:11:25.380Z,1.60
2017-12-27T08:12:25.364Z,5.10
2017-12-27T08:13:25.382Z,2.70
2017-12-27T08:14:25.382Z,4.60
2017-12-27T08:15:25.382Z,4.00
2017-12-27T08:16:25.402Z,4.10
2017-12-27T08:17:25.454Z,3.20
2017-12-27T08:18:25.409Z,4.10
2017-12-27T08:19:25.415Z,4.60
2017-12-27T08:20:25.420Z,2.70
2017-12-27T08:21:25.428Z,2.00
2017-12-27T08:22:25.436Z,2.50
2017-12-27T08:23:25.447Z,3.30
2017-12-27T08:24:25.449Z,4.70
2017-12-27T08:25:25.459Z,3.60
2017-12-27T08:26:25.470Z,4.30
2017-12-27T08:27:25.564Z,3.40
2017-12-27T08:28:25.484Z,4.60
2017-12-27T08:29:25.497Z,8.50
2017-12-27T08:30:25.495Z,6.20
2017-12-27T08:31:25.503Z,2.80
2017-12-27T08:32:25.511Z,1.40
2017-12-27T08:33:25.510Z,3.70
2017-12-27T08:34:25.523Z,5.90
2017-12-27T08:35:25.526Z,2.80
2017-12-27T08:36:25.536Z,2.40
2017-12-27T08:37:25.537Z,3.00
2017-12-27T08:38:25.551Z,2.70
2017-12-27T08:39:25.561Z,1.40
2017-12-27T08:40:25.560Z,3.50
2017-12-27T08:41:25.572Z,2.60
2017-12-27T08:42:25.582Z,2.70
2017-12-27T08:43:25.588Z,2.50
2017-12-27T08:44:25.600Z,3.80
2017-12-27T08:45:25.593Z,3.30
2017-12-27T08:46:25.652Z,6.50
2017-12-27T08:47:25.609Z,6.40
2017-12-27T08:48:25.618Z,3.20
2017-12-27T08:49:25.622Z,3.40
2017-12-27T08:50:25.715Z,2.50
2017-12-27T08:51:25.641Z,4.80
2017-12-27T08:52:25.649Z,2.50
2017-12-27T08:53:25.655Z,2.50
2017-12-27T08:54:25.661Z,2.00
2017-12-27T08:55:25.672Z,4.00
2017-12-27T08:56:25.680Z,4.70
2017-12-27T08:57:25.684Z,1.90
2017-12-27T08:58:25.686Z,1.90
2017-12-27T08:59:25.696Z,5.10
2017-12-27T09:00:25.702Z,2.70
2017-12-27T09:01:25.723Z,4.10
2017-12-27T09:02:25.714Z,3.00
2017-12-27T09:03:25.724Z,1.80
2017-12-27T09:04:25.732Z,2.50
2017-12-27T09:05:25.735Z,2.70
2017-12-27T09:06:25.748Z,2.00
2017-12-27T09:07:25.750Z,3.40
2017-12-27T09:08:25.764Z,2.60
2017-12-27T09:09:25.764Z,3.50
2017-12-27T09:10:25.780Z,2.50
2017-12-27T09:11:25.788Z,2.50
2017-12-27T09:12:25.786Z,2.70
2017-12-27T09:13:25.792Z,3.70
2017-12-27T09:14:25.803Z,2.60
2017-12-27T09:15:25.808Z,2.00
2017-12-27T09:16:25.818Z,3.20
2017-12-27T09:17:25.820Z,3.00
2017-12-27T09:18:25.823Z,2.60
2017-12-27T09:19:25.839Z,2.70
2017-12-27T09:20:25.839Z,2.80
2017-12-27T09:21:25.850Z,4.50
2017-12-27T09:22:25.858Z,5.60
2017-12-27T09:23:25.861Z,2.60
2017-12-27T09:24:25.869Z,3.10
2017-12-27T09:25:25.881Z,3.70
2017-12-27T09:26:25.885Z,2.40
2017-12-27T09:27:25.892Z,2.20
2017-12-27T09:28:25.908Z,2.40
2017-12-27T09:29:25.900Z,1.90
2017-12-27T09:30:25.912Z,2.30
2017-12-27T09:31:25.926Z,2.70
2017-12-27T09:32:25.928Z,2.60
2017-12-27T09:34:25.943Z,3.50
2017-12-27T09:35:25.945Z,3.40
2017-12-27T09:36:25.970Z,4.00
2017-12-27T09:37:25.960Z,4.10
2017-12-27T09:38:25.974Z,1.80
2017-12-27T09:39:25.971Z,2.20
2017-12-27T09:40:25.979Z,2.40
2017-12-27T09:41:26.039Z,2.00
2017-12-27T09:42:25.997Z,4.10
2017-12-27T09:43:26.010Z,1.50
2017-12-27T09:44:26.014Z,1.60
2017-12-27T09:45:26.020Z,2.40
2017-12-27T09:46:26.026Z,2.00
2017-12-27T09:47:26.038Z,2.10
2017-12-27T09:48:26.043Z,2.70
2017-12-27T09:49:26.073Z,3.00
2017-12-27T09:50:26.065Z,3.20
2017-12-27T09:51:26.072Z,1.90
2017-12-27T09:52:26.085Z,1.90
2017-12-27T09:53:26.081Z,2.50
2017-12-27T09:54:26.076Z,4.50
2017-12-27T09:55:26.103Z,3.90
2017-12-27T09:56:26.108Z,2.30
2017-12-27T09:57:26.115Z,4.40
2017-12-27T09:58:26.115Z,3.40
2017-12-27T09:59:26.125Z,2.30
2017-12-27T10:00:26.128Z,3.60
2017-12-27T10:01:26.132Z,5.40
2017-12-27T10:02:26.150Z,2.00
2017-12-27T10:03:26.153Z,2.70
2017-12-27T10:04:26.156Z,2.50
2017-12-27T10:05:26.167Z,4.80
2017-12-27T10:06:26.169Z,2.50
2017-12-27T10:07:26.182Z,2.60
2017-12-27T10:08:26.190Z,2.60
2017-12-27T10:09:26.191Z,4.10
2017-12-27T10:10:26.196Z,3.70
2017-12-27T10:11:26.211Z,2.10
2017-12-27T10:12:26.223Z,2.40
2017-12-27T10:13:26.227Z,4.50
2017-12-27T10:14:26.238Z,2.30
2017-12-27T10:15:26.239Z,1.80
2017-12-27T10:16:26.249Z,1.60
2017-12-27T10:17:26.256Z,2.30
2017-12-27T10:18:26.265Z,3.30
2017-12-27T10:19:26.336Z,1.90
2017-12-27T10:20:26.282Z,2.20
2017-12-27T10:21:26.288Z,3.40
2017-12-27T10:22:26.298Z,2.10
2017-12-27T10:23:26.301Z,1.90
2017-12-27T10:24:26.309Z,1.70
2017-12-27T10:25:26.327Z,4.20
2017-12-27T10:26:26.323Z,2.70
2017-12-27T10:27:26.332Z,1.50
2017-12-27T10:28:26.341Z,1.10
2017-12-27T10:29:26.337Z,1.90
2017-12-27T10:30:26.352Z,2.40
2017-12-27T10:31:26.362Z,3.30
2017-12-27T10:32:26.370Z,22.80
2017-12-27T10:33:26.380Z,22.40
2017-12-27T10:34:26.381Z,4.90
2017-12-27T10:35:26.391Z,5.40
2017-12-27T10:36:26.400Z,2.70
2017-12-27T10:37:26.406Z,1.50
2017-12-27T10:38:26.413Z,2.30
2017-12-27T10:39:26.417Z,1.90
2017-12-27T10:40:26.426Z,1.10
2017-12-27T10:41:26.439Z,2.50
2017-12-27T10:42:26.436Z,2.60
2017-12-27T10:43:26.451Z,2.40
2017-12-27T10:44:26.449Z,2.00
2017-12-27T10:45:26.465Z,2.80
2017-12-27T10:46:26.465Z,2.00
2017-12-27T10:47:26.483Z,1.30
2017-12-27T10:48:26.479Z,5.50
2017-12-27T10:49:26.487Z,5.10
2017-12-27T10:50:26.499Z,4.70
2017-12-27T10:51:26.502Z,6.10
2017-12-27T10:52:26.509Z,2.80
2017-12-27T10:53:26.515Z,3.70
2017-12-27T10:54:26.537Z,1.70
2017-12-27T10:55:26.538Z,3.60
2017-12-27T10:56:26.528Z,1.90
2017-12-27T10:57:26.537Z,1.10
2017-12-27T10:58:26.554Z,0.90
2017-12-27T10:59:26.553Z,1.00
2017-12-27T11:00:26.555Z,1.80
2017-12-27T11:01:26.569Z,0.90
2017-12-27T11:02:26.581Z,0.90
2017-12-27T11:03:26.574Z,0.90
2017-12-27T11:04:26.592Z,0.80
2017-12-27T11:05:26.600Z,1.00
2017-12-27T11:06:26.610Z,2.00
2017-12-27T11:07:26.612Z,3.20
2017-12-27T11:08:26.622Z,1.80
2017-12-27T11:09:26.626Z,0.60
2017-12-27T11:10:26.627Z,1.20
2017-12-27T11:11:26.645Z,1.40
2017-12-27T11:12:26.646Z,0.80
2017-12-27T11:13:26.663Z,1.40
2017-12-27T11:14:26.661Z,1.10
2017-12-27T11:15:26.671Z,2.40
2017-12-27T11:16:26.675Z,1.90
2017-12-27T11:17:26.694Z,0.80
2017-12-27T11:18:26.692Z,1.10
2017-12-27T11:19:26.696Z,1.20
2017-12-27T11:20:26.759Z,1.50
2017-12-27T11:21:26.701Z,2.00
2017-12-27T11:22:26.724Z,1.50
2017-12-27T11:23:26.725Z,3.70
2017-12-27T11:24:26.728Z,2.50
2017-12-27T11:25:26.739Z,1.40
2017-12-27T11:26:26.743Z,1.70
2017-12-27T11:27:26.746Z,2.10
2017-12-27T11:28:26.759Z,1.10
2017-12-27T11:29:26.759Z,3.10
2017-12-27T11:30:26.767Z,0.90
2017-12-27T11:31:26.775Z,1.40
2017-12-27T11:32:26.786Z,1.00
2017-12-27T11:33:26.795Z,3.70
2017-12-27T11:34:26.802Z,2.00
2017-12-27T11:35:26.810Z,2.30
2017-12-27T11:36:26.831Z,0.90
2017-12-27T11:37:26.815Z,2.10
2017-12-27T11:38:26.829Z,0.90
2017-12-27T11:39:26.837Z,1.80
2017-12-27T11:40:26.841Z,0.90
2017-12-27T11:41:26.852Z,2.20
2017-12-27T11:42:26.862Z,1.40
2017-12-27T11:43:26.868Z,2.00
2017-12-27T11:44:26.872Z,0.90
2017-12-27T11:45:26.881Z,0.90
2017-12-27T11:46:26.882Z,0.90
2017-12-27T11:48:26.932Z,1.00
2017-12-27T11:49:26.909Z,1.30
2017-12-27T11:50:26.916Z,0.70
2017-12-27T11:51:26.930Z,1.20
2017-12-27T11:52:26.937Z,1.20
2017-12-27T11:53:26.938Z,2.80
2017-12-27T11:54:26.942Z,1.60
2017-12-27T11:55:26.957Z,1.40
2017-12-27T11:56:26.958Z,1.00
2017-12-27T11:57:26.964Z,0.90
2017-12-27T11:58:27.636Z,2.20
2017-12-27T11:59:26.980Z,1.80
2017-12-27T12:00:26.984Z,2.20
2017-12-27T12:01:26.991Z,1.40
2017-12-27T12:02:27.005Z,2.30
2017-12-27T12:03:27.008Z,1.40
2017-12-27T12:04:27.022Z,1.50
2017-12-27T12:05:27.024Z,1.20
2017-12-27T12:06:27.025Z,0.80
2017-12-27T12:07:27.038Z,1.70
2017-12-27T12:08:27.046Z,1.40
2017-12-27T12:09:27.053Z,1.10
2017-12-27T12:10:27.063Z,0.90
2017-12-27T12:11:27.065Z,2.20
2017-12-27T12:12:27.070Z,2.00
2017-12-27T12:13:27.078Z,3.20
2017-12-27T12:14:27.097Z,1.10
2017-12-27T12:15:27.094Z,0.90
2017-12-27T12:16:27.101Z,2.40
2017-12-27T12:17:27.113Z,1.70
2017-12-27T12:18:27.124Z,2.00
2017-12-27T12:19:27.127Z,2.00
2017-12-27T12:20:27.132Z,1.60
2017-12-27T12:21:27.202Z,1.30
2017-12-27T12:22:27.136Z,2.20
2017-12-27T12:23:27.167Z,3.40
2017-12-27T12:24:27.149Z,1.20
2017-12-27T12:25:27.165Z,2.40
2017-12-27T12:26:27.173Z,2.40
2017-12-27T12:27:27.188Z,1.70
2017-12-27T12:28:27.180Z,2.20
2017-12-27T12:29:27.192Z,1.10
2017-12-27T12:30:27.202Z,1.40
2017-12-27T12:31:27.210Z,2.90
2017-12-27T12:32:27.228Z,1.20
2017-12-27T12:33:27.247Z,3.40
2017-12-27T12:34:27.219Z,2.30
2017-12-27T12:35:27.233Z,1.60
2017-12-27T12:36:27.230Z,4.20
2017-12-27T12:37:27.248Z,2.70
2017-12-27T12:38:27.255Z,3.20
2017-12-27T12:39:27.266Z,2.00
2017-12-27T12:40:27.269Z,1.50
2017-12-27T12:41:27.279Z,2.10
2017-12-27T12:42:27.292Z,1.50
2017-12-27T12:43:27.295Z,1.30
2017-12-27T12:44:27.296Z,1.50
2017-12-27T12:45:27.312Z,0.80
2017-12-27T12:46:27.314Z,4.40
2017-12-27T12:47:27.314Z,1.40
2017-12-27T12:48:27.327Z,1.60
2017-12-27T12:49:27.332Z,2.90
2017-12-27T12:50:27.351Z,0.80
2017-12-27T12:51:27.355Z,2.30
2017-12-27T12:52:27.361Z,2.10
2017-12-27T12:53:27.373Z,1.60
2017-12-27T12:54:27.365Z,1.50
2017-12-27T12:55:27.381Z,1.30
2017-12-27T12:56:27.390Z,0.90
2017-12-27T12:57:27.398Z,1.40
2017-12-27T12:58:27.401Z,1.40
2017-12-27T12:59:27.507Z,4.30
2017-12-27T13:00:27.409Z,2.00
2017-12-27T13:01:27.424Z,1.70
2017-12-27T13:02:27.537Z,1.40
2017-12-27T13:03:27.437Z,1.40
2017-12-27T13:04:27.445Z,1.40
2017-12-27T13:05:27.457Z,1.10
2017-12-27T13:06:27.455Z,2.20
2017-12-27T13:07:27.467Z,1.90
2017-12-27T13:08:27.474Z,2.40
2017-12-27T13:09:27.480Z,2.40
2017-12-27T13:10:27.497Z,1.60
2017-12-27T13:11:27.502Z,1.30
2017-12-27T13:12:27.613Z,2.60
2017-12-27T13:13:27.507Z,3.80
2017-12-27T13:14:27.525Z,1.00
2017-12-27T13:15:27.526Z,1.50
2017-12-27T13:16:27.530Z,1.30
2017-12-27T13:17:27.549Z,2.70
2017-12-27T13:18:27.548Z,0.80
2017-12-27T13:19:27.566Z,1.70
2017-12-27T13:20:27.563Z,1.10
2017-12-27T13:21:27.569Z,1.50